Time;durP1;ratioP1;P1;durP2;ratioP2;P2;SDS_P1;SDS_P2;PMS_P1;PMS_P2;Temp;Humidity;BMP_temperature;BMP_pressure;BME280_temperature;BME280_humidity;BME280_pressure;Samples;Min_cycle;Max_cycle;Signal;HPM_P1;HPM_P2
2022/04/15 00:01:21;;;;;;;5.30;1.98;;;;;;;5.60;53.07;102405.47;5030426;28;20490;-65
2022/04/15 00:03:47;;;;;;;7.72;3.13;;;;;;;5.67;53.14;102408.09;5037865;28;20061;-65
2022/04/15 00:06:12;;;;;;;5.50;2.42;;;;;;;5.83;52.74;102405.59;5038228;28;20059;-63
2022/04/15 00:08:38;;;;;;;8.00;3.67;;;;;;;5.72;52.49;102409.84;5039700;28;20405;-65
2022/04/15 00:11:04;;;;;;;6.28;3.25;;;;;;;5.69;53.25;102417.63;5037133;28;20082;-66
2022/04/15 00:13:31;;;;;;;4.45;2.83;;;;;;;5.79;52.65;102414.22;5015904;28;20056;-64
2022/04/15 00:15:57;;;;;;;7.82;2.33;;;;;;;5.62;53.22;102412.41;5039518;28;20068;-65
2022/04/15 00:18:24;;;;;;;5.63;1.92;;;;;;;5.22;53.84;102412.16;5040024;28;20068;-64
2022/04/15 00:20:52;;;;;;;3.22;2.15;;;;;;;5.53;53.16;102406.31;5035281;28;20086;-67
2022/04/15 00:23:18;;;;;;;3.88;2.03;;;;;;;5.55;52.94;102410.66;5036884;28;20543;-66
2022/04/15 00:25:44;;;;;;;2.75;1.67;;;;;;;5.29;53.15;102409.63;5037717;28;20032;-66
2022/04/15 00:28:10;;;;;;;7.20;1.52;;;;;;;5.36;53.18;102408.78;5038539;28;21352;-67
2022/04/15 00:30:36;;;;;;;1.98;1.50;;;;;;;5.07;53.66;102412.03;5038488;28;20047;-66
2022/04/15 00:33:02;;;;;;;7.50;1.80;;;;;;;5.04;53.15;102415.47;5032735;28;20029;-66
2022/04/15 00:35:27;;;;;;;5.57;1.35;;;;;;;5.25;52.95;102412.16;5040190;28;20118;-67
2022/04/15 00:37:53;;;;;;;4.35;1.42;;;;;;;5.07;53.66;102416.38;5035407;28;20520;-66
2022/04/15 00:40:18;;;;;;;3.78;2.33;;;;;;;5.02;54.02;102412.00;5040329;28;20378;-66
2022/04/15 00:42:44;;;;;;;5.45;2.20;;;;;;;5.37;53.20;102407.91;5018462;28;20048;-67
2022/04/15 00:45:10;;;;;;;5.30;2.33;;;;;;;5.51;52.90;102414.06;5030551;28;20036;-66
2022/04/15 00:47:52;;;;;;;6.30;1.95;;;;;;;5.44;52.81;102412.31;5039644;28;20049;-67
2022/04/15 00:50:19;;;;;;;3.90;1.80;;;;;;;5.35;53.11;102425.22;5037098;28;20033;-65
2022/04/15 00:52:46;;;;;;;6.00;1.88;;;;;;;5.60;52.07;102424.50;5037372;28;20649;-65
2022/04/15 00:55:13;;;;;;;3.45;1.13;;;;;;;5.15;53.31;102420.75;5038053;28;20044;-66
2022/04/15 00:57:50;;;;;;;3.00;1.83;;;;;;;5.35;52.79;102425.22;5038467;28;20426;-67
2022/04/15 01:00:17;;;;;;;3.03;1.50;;;;;;;5.51;52.19;102424.44;5054511;28;20025;-66
2022/04/15 01:02:43;;;;;;;5.68;2.20;;;;;;;5.43;53.00;102415.75;5028720;28;20260;-65
2022/04/15 01:05:10;;;;;;;5.82;2.80;;;;;;;5.04;54.28;102427.56;5036771;28;20033;-66
2022/04/15 01:07:38;;;;;;;10.55;3.53;;;;;;;5.31;53.60;102420.88;5038250;28;20048;-65
2022/04/15 01:10:06;;;;;;;5.40;3.38;;;;;;;5.18;53.72;102425.94;5037199;28;20088;-67
2022/04/15 01:12:35;;;;;;;5.20;3.83;;;;;;;5.10;54.26;102419.84;5039501;28;20037;-68
2022/04/15 01:15:07;;;;;;;4.78;3.58;;;;;;;5.27;53.48;102417.38;5034093;28;20051;-68
2022/04/15 01:17:35;;;;;;;;;;;;;;;5.27;54.23;102419.09;5039634;28;20394;-67
2022/04/15 01:20:03;;;;;;;10.55;3.92;;;;;;;5.32;54.27;102431.22;5016779;28;19927;-67
2022/04/15 01:22:33;;;;;;;11.13;4.05;;;;;;;5.60;53.53;102432.28;5037126;28;20051;-69
2022/04/15 01:24:58;;;;;;;7.47;3.63;;;;;;;5.53;53.74;102427.91;5035148;28;20529;-68
2022/04/15 01:27:31;;;;;;;9.50;3.55;;;;;;;5.33;54.64;102434.72;5040514;28;20183;-68
2022/04/15 01:29:57;;;;;;;7.05;4.00;;;;;;;5.16;54.89;102435.44;5037017;28;20319;-69
2022/04/15 01:32:23;;;;;;;7.03;3.65;;;;;;;4.97;55.01;102449.13;5032062;28;20040;-69
2022/04/15 01:34:48;;;;;;;6.28;2.15;;;;;;;4.86;55.24;102449.00;5038380;28;20037;-69
2022/04/15 01:37:16;;;;;;;4.78;1.75;;;;;;;4.95;54.50;102448.25;5039128;28;20064;-70
2022/04/15 01:39:43;;;;;;;3.20;1.52;;;;;;;4.93;54.86;102460.31;5035239;28;20095;-66
2022/04/15 01:42:15;;;;;;;4.78;1.00;;;;;;;4.80;54.95;102452.38;5037776;28;20036;-66
2022/04/15 01:44:41;;;;;;;;;;;;;;;4.96;54.98;102453.41;5030463;28;20397;-66
2022/04/15 01:47:07;;;;;;;5.35;1.90;;;;;;;4.71;55.91;102460.06;5052103;28;19930;-66
2022/04/15 01:49:33;;;;;;;6.72;2.10;;;;;;;4.90;55.61;102455.06;5039060;28;20153;-66
2022/04/15 01:51:58;;;;;;;6.85;2.53;;;;;;;5.02;55.04;102461.25;5035756;28;20044;-66
2022/04/15 01:54:24;;;;;;;5.90;2.38;;;;;;;5.27;54.50;102460.59;5035298;28;20080;-66
2022/04/15 01:56:49;;;;;;;6.05;3.40;;;;;;;5.11;55.25;102464.78;5018163;28;20028;-72
2022/04/15 01:59:15;;;;;;;10.85;2.85;;;;;;;5.21;54.50;102467.47;5037473;28;20037;-67
2022/04/15 02:01:40;;;;;;;5.32;3.15;;;;;;;4.98;54.96;102468.97;5052317;28;20112;-65
2022/04/15 02:04:06;;;;;;;10.35;2.90;;;;;;;5.28;54.34;102464.91;5033144;28;20510;-67
2022/04/15 02:06:31;;;;;;;4.45;2.63;;;;;;;5.30;54.23;102470.97;5037785;28;20456;-66
2022/04/15 02:08:57;;;;;;;5.35;3.17;;;;;;;5.01;55.19;102475.06;5037354;28;20068;-67
2022/04/15 02:11:22;;;;;;;5.63;3.03;;;;;;;5.43;53.75;102470.19;5037934;28;20058;-67
2022/04/15 02:13:48;;;;;;;4.20;2.80;;;;;;;5.51;53.38;102476.31;5028913;28;20037;-67
2022/04/15 02:16:13;;;;;;;5.10;3.25;;;;;;;5.58;53.94;102467.72;5030547;28;20593;-67
2022/04/15 02:18:39;;;;;;;13.23;4.30;;;;;;;5.62;53.56;102474.66;5034575;28;20044;-66
2022/04/15 02:21:04;;;;;;;5.07;1.80;;;;;;;5.25;54.74;102474.38;5037964;28;20037;-66
2022/04/15 02:23:29;;;;;;;6.40;1.70;;;;;;;5.54;53.73;102465.94;5036209;28;22794;-67
2022/04/15 02:25:55;;;;;;;5.32;1.27;;;;;;;5.43;53.98;102470.19;5018158;28;20576;-66
2022/04/15 02:28:20;;;;;;;3.38;1.13;;;;;;;5.32;54.64;102469.25;5037279;28;20040;-67
2022/04/15 02:30:47;;;;;;;5.00;0.98;;;;;;;5.12;54.51;102472.53;5036141;28;20041;-67
2022/04/15 02:33:14;;;;;;;2.35;1.40;;;;;;;5.24;54.35;102474.41;5035494;28;20369;-68
2022/04/15 02:35:40;;;;;;;7.55;2.78;;;;;;;5.37;53.94;102480.53;5037137;28;20322;-66
2022/04/15 02:38:05;;;;;;;2.10;0.98;;;;;;;5.48;53.34;102476.31;5036807;28;20033;-67
2022/04/15 02:40:31;;;;;;;1.83;1.30;;;;;;;5.44;53.93;102484.91;5037678;28;20033;-67
2022/04/15 02:42:56;;;;;;;3.65;1.73;;;;;;;5.54;53.44;102476.31;5034973;28;20159;-66
2022/04/15 02:45:22;;;;;;;8.07;2.08;;;;;;;5.38;54.11;102479.69;5035937;28;20047;-67
2022/04/15 02:47:48;;;;;;;5.95;1.65;;;;;;;5.56;53.34;102481.53;5031807;28;20036;-64
2022/04/15 02:50:14;;;;;;;4.93;2.20;;;;;;;5.78;53.09;102478.22;5036145;28;20131;-64
2022/04/15 02:52:40;;;;;;;3.60;2.08;;;;;;;5.76;53.31;102471.28;5032914;28;20108;-64
2022/04/15 02:55:06;;;;;;;3.05;2.13;;;;;;;5.76;53.23;102476.47;5035720;28;20040;-63
2022/04/15 02:57:32;;;;;;;4.80;2.28;;;;;;;5.64;53.57;102478.13;5036687;28;20037;-64
2022/04/15 02:59:58;;;;;;;3.28;2.80;;;;;;;5.85;53.20;102486.91;5033199;28;20110;-66
2022/04/15 03:02:24;;;;;;;4.03;2.75;;;;;;;5.74;53.56;102480.78;5027963;28;20094;-66
2022/04/15 03:04:50;;;;;;;3.38;2.50;;;;;;;5.78;53.66;102487.72;5034439;28;20078;-64
2022/04/15 03:07:15;;;;;;;8.05;3.20;;;;;;;5.95;53.28;102493.00;5051281;28;20124;-64
2022/04/15 03:09:41;;;;;;;6.28;3.90;;;;;;;5.67;54.00;102488.53;5035082;28;20382;-64
2022/04/15 03:12:07;;;;;;;5.25;3.22;;;;;;;5.56;54.31;102489.31;5034836;28;20421;-64
2022/04/15 03:14:32;;;;;;;4.72;3.70;;;;;;;5.60;54.35;102497.13;5037373;28;20466;-64
2022/04/15 03:16:58;;;;;;;5.45;3.28;;;;;;;5.72;54.27;102498.06;5034646;28;20500;-64
2022/04/15 03:19:23;;;;;;;6.05;3.85;;;;;;;5.83;54.02;102489.47;5035558;28;20674;-64
2022/04/15 03:21:48;;;;;;;16.90;4.85;;;;;;;5.80;53.98;102489.47;5037579;28;20478;-64
2022/04/15 03:24:14;;;;;;;4.93;3.95;;;;;;;5.91;54.08;102486.94;5035439;28;20525;-64
2022/04/15 03:26:39;;;;;;;9.10;4.90;;;;;;;5.63;54.69;102491.94;5040235;28;20126;-64
2022/04/15 03:29:05;;;;;;;9.60;5.95;;;;;;;5.59;54.82;102492.81;5038780;28;20555;-64
2022/04/15 03:31:30;;;;;;;12.27;5.63;;;;;;;5.82;54.78;102492.09;5042703;28;20033;-64
2022/04/15 03:33:56;;;;;;;12.82;6.20;;;;;;;5.71;54.66;102488.56;5035570;28;20052;-64
2022/04/15 03:36:22;;;;;;;10.82;5.43;;;;;;;5.79;54.62;102486.84;5040418;28;20494;-65
2022/04/15 03:38:48;;;;;;;13.35;4.82;;;;;;;5.60;54.56;102498.84;5040915;28;20048;-64
2022/04/15 03:41:13;;;;;;;12.23;6.47;;;;;;;5.69;54.54;102508.44;5040730;28;20044;-64
2022/04/15 03:43:40;;;;;;;11.02;6.43;;;;;;;5.74;54.48;102504.13;5040074;28;20040;-63
2022/04/15 03:46:06;;;;;;;14.13;6.10;;;;;;;5.77;53.91;102498.94;5037719;28;20683;-64
2022/04/15 03:48:31;;;;;;;16.77;7.70;;;;;;;5.71;54.07;102514.50;5021766;28;20163;-64
2022/04/15 03:50:57;;;;;;;17.33;7.82;;;;;;;5.49;54.32;102514.34;5037654;28;20082;-64
2022/04/15 03:53:22;;;;;;;22.52;8.02;;;;;;;5.67;54.01;102516.19;5040104;28;20037;-64
2022/04/15 03:55:48;;;;;;;18.17;8.70;;;;;;;5.69;54.05;102513.63;5036665;28;20484;-65
2022/04/15 03:58:16;;;;;;;12.95;7.50;;;;;;;5.56;54.06;102513.53;5036848;28;20147;-64
2022/04/15 04:00:42;;;;;;;19.42;7.68;;;;;;;5.69;53.56;102516.22;5038142;28;20090;-64
2022/04/15 04:03:07;;;;;;;11.82;6.80;;;;;;;5.61;54.09;102514.44;5037242;28;20029;-64
2022/04/15 04:05:33;;;;;;;18.95;7.35;;;;;;;5.54;54.13;102516.97;5038904;28;20138;-64
2022/04/15 04:07:58;;;;;;;15.18;8.00;;;;;;;5.39;54.35;102523.78;5037591;28;20140;-64
2022/04/15 04:10:24;;;;;;;22.25;8.00;;;;;;;5.32;54.59;102521.09;5039262;28;20103;-64
2022/04/15 04:12:51;;;;;;;17.27;7.43;;;;;;;4.99;55.64;102522.56;5034264;28;20501;-66
2022/04/15 04:15:17;;;;;;;12.57;7.10;;;;;;;5.07;55.15;102531.25;5055038;28;20055;-63
2022/04/15 04:17:43;;;;;;;21.52;7.13;;;;;;;5.38;54.31;102534.13;5037269;28;20044;-64
2022/04/15 04:20:12;;;;;;;18.27;7.70;;;;;;;5.28;54.25;102534.91;5039764;28;20029;-64
2022/04/15 04:22:39;;;;;;;13.80;6.57;;;;;;;5.27;54.24;102528.00;5037898;28;20068;-64
2022/04/15 04:25:08;;;;;;;17.88;7.03;;;;;;;4.72;55.57;102530.84;5037231;28;20036;-64
2022/04/15 04:27:36;;;;;;;13.45;6.72;;;;;;;4.72;55.23;102534.34;5032610;28;20057;-67
2022/04/15 04:30:03;;;;;;;24.38;7.45;;;;;;;4.68;55.29;102539.47;5038110;28;20067;-68
2022/04/15 04:32:28;;;;;;;15.13;6.20;;;;;;;4.97;54.34;102534.63;5039518;28;20714;-69
2022/04/15 04:34:54;;;;;;;13.73;6.82;;;;;;;5.05;54.04;102538.16;5037589;28;20040;-69
2022/04/15 04:37:19;;;;;;;15.35;6.88;;;;;;;4.94;54.22;102539.78;5039943;28;20085;-68
2022/04/15 04:39:45;;;;;;;21.95;6.68;;;;;;;4.98;54.15;102547.59;5037650;28;20556;-68
2022/04/15 04:42:11;;;;;;;15.77;7.20;;;;;;;4.82;55.01;102554.28;5039233;28;20090;-69
2022/04/15 04:44:38;;;;;;;17.30;8.32;;;;;;;5.17;54.32;102560.75;5038994;28;20032;-68
2022/04/15 04:47:06;;;;;;;19.50;6.80;;;;;;;4.65;55.36;102566.19;5019196;28;20182;-67
2022/04/15 04:49:32;;;;;;;14.32;7.07;;;;;;;4.90;54.24;102569.09;5039013;28;20036;-67
2022/04/15 04:51:57;;;;;;;16.52;7.65;;;;;;;4.89;53.97;102567.34;5037128;28;20048;-67
2022/04/15 04:54:23;;;;;;;14.40;7.18;;;;;;;4.67;54.65;102579.16;5039131;28;20039;-66
2022/04/15 04:56:48;;;;;;;18.08;7.47;;;;;;;4.89;54.51;102575.13;5037470;28;20041;-66
2022/04/15 04:59:14;;;;;;;14.50;7.70;;;;;;;4.94;54.12;102581.22;5029024;28;20376;-66
2022/04/15 05:01:39;;;;;;;14.48;8.32;;;;;;;5.10;53.82;102583.16;5038124;28;20063;-64
2022/04/15 05:04:04;;;;;;;17.85;8.02;;;;;;;5.23;53.52;102585.00;5034102;28;20508;-66
2022/04/15 05:06:30;;;;;;;13.00;7.85;;;;;;;5.34;53.67;102589.41;5027591;28;20135;-65
2022/04/15 05:08:56;;;;;;;18.95;7.90;;;;;;;5.40;53.22;102592.06;5016660;28;20051;-65
2022/04/15 05:11:21;;;;;;;14.50;7.68;;;;;;;5.25;53.47;102588.47;5040672;28;20029;-67
2022/04/15 05:13:47;;;;;;;15.07;6.47;;;;;;;4.94;53.56;102591.59;5039775;28;20088;-65
2022/04/15 05:16:12;;;;;;;14.40;7.65;;;;;;;5.31;52.33;102599.75;5037717;28;20036;-65
2022/04/15 05:18:38;;;;;;;11.65;5.60;;;;;;;5.22;52.79;102593.63;5019853;28;20086;-67
2022/04/15 05:21:03;;;;;;;12.75;6.93;;;;;;;5.16;52.98;102596.16;5039563;28;20489;-67
2022/04/15 05:23:29;;;;;;;11.02;6.40;;;;;;;5.34;51.93;102602.38;5015835;28;20087;-67
2022/04/15 05:25:54;;;;;;;11.70;6.88;;;;;;;5.53;52.06;102599.09;5033213;28;20362;-67
2022/04/15 05:28:20;;;;;;;13.35;6.43;;;;;;;5.38;52.51;102607.59;5036326;28;20449;-67
2022/04/15 05:30:45;;;;;;;14.55;6.22;;;;;;;5.70;51.35;102611.34;5035269;28;20040;-67
2022/04/15 05:33:11;;;;;;;17.55;6.57;;;;;;;5.59;51.93;102609.53;5034144;28;20041;-67
2022/04/15 05:35:36;;;;;;;15.00;7.10;;;;;;;5.55;52.06;102618.16;5033119;28;20032;-67
2022/04/15 05:38:03;;;;;;;17.63;6.13;;;;;;;5.44;52.25;102620.63;5031897;28;20041;-68
2022/04/15 05:40:28;;;;;;;14.32;4.85;;;;;;;5.42;51.93;102624.94;5035864;28;20077;-67
2022/04/15 05:42:54;;;;;;;11.60;4.57;;;;;;;5.51;51.79;102626.75;5030762;28;20040;-68
2022/04/15 05:45:20;;;;;;;4.45;3.63;;;;;;;5.65;51.39;102634.66;5034965;28;20060;-65
2022/04/15 05:47:46;;;;;;;10.50;4.30;;;;;;;5.19;52.20;102635.09;5032477;28;20049;-65
2022/04/15 05:50:11;;;;;;;11.88;3.38;;;;;;;5.70;51.34;102642.47;5031804;28;20560;-67
2022/04/15 05:52:37;;;;;;;9.23;4.10;;;;;;;5.92;50.08;102644.38;5030159;28;20308;-63
2022/04/15 05:55:03;;;;;;;13.88;4.10;;;;;;;5.81;50.37;102651.22;5032564;28;20445;-64
2022/04/15 05:57:28;;;;;;;7.68;4.28;;;;;;;5.56;51.62;102651.00;5031520;28;20329;-66
2022/04/15 05:59:53;;;;;;;12.00;3.95;;;;;;;5.58;51.45;102654.47;5032425;28;20070;-63
2022/04/15 06:02:19;;;;;;;12.13;3.72;;;;;;;5.87;50.72;102659.06;5034392;28;20041;-65
2022/04/15 06:04:44;;;;;;;10.15;3.53;;;;;;;5.93;51.05;102661.72;5030613;28;20128;-64
2022/04/15 06:07:10;;;;;;;7.22;4.28;;;;;;;6.05;49.79;102661.78;5029066;28;20462;-65
2022/04/15 06:09:35;;;;;;;9.98;4.03;;;;;;;5.96;50.58;102658.25;5035537;28;20036;-67
2022/04/15 06:12:01;;;;;;;13.75;4.85;;;;;;;6.07;50.07;102665.25;5030119;28;20060;-67
2022/04/15 06:14:33;;;;;;;6.03;3.75;;;;;;;6.19;49.51;102661.03;5035536;28;20032;-68
2022/04/15 06:16:59;;;;;;;8.23;4.47;;;;;;;6.05;50.06;102669.56;5024833;28;20036;-70
2022/04/15 06:19:25;;;;;;;11.50;3.88;;;;;;;6.04;49.76;102672.19;5037135;28;20025;-69
2022/04/15 06:21:51;;;;;;;8.57;3.05;;;;;;;5.97;49.94;102676.44;5029460;28;20045;-68
2022/04/15 06:24:17;;;;;;;11.65;4.20;;;;;;;6.06;49.43;102676.53;5034573;28;20048;-68
2022/04/15 06:26:43;;;;;;;10.40;3.65;;;;;;;6.22;49.24;102676.63;5035615;28;20328;-69
2022/04/15 06:29:08;;;;;;;8.00;3.33;;;;;;;6.08;49.66;102687.78;5036496;28;20025;-67
2022/04/15 06:31:34;;;;;;;7.68;3.15;;;;;;;6.25;48.85;102687.03;5038263;28;20520;-67
2022/04/15 06:33:59;;;;;;;7.43;3.63;;;;;;;6.36;48.77;102688.00;5035148;28;20826;-66
2022/04/15 06:36:25;;;;;;;8.70;4.18;;;;;;;6.30;49.08;102682.78;5040133;28;20067;-67
2022/04/15 06:38:51;;;;;;;7.57;3.15;;;;;;;6.32;49.96;102696.63;5031286;28;20063;-67
2022/04/15 06:41:16;;;;;;;13.50;5.47;;;;;;;6.04;49.62;102686.03;5035651;28;20533;-67
2022/04/15 06:43:42;;;;;;;12.27;3.80;;;;;;;6.17;50.13;102696.50;5035749;28;20040;-67
2022/04/15 06:46:07;;;;;;;7.43;3.78;;;;;;;6.24;49.33;102699.16;5034091;28;20091;-67
2022/04/15 06:48:33;;;;;;;7.95;3.58;;;;;;;6.12;49.16;102701.66;5037610;28;20636;-66
2022/04/15 06:50:59;;;;;;;15.98;4.38;;;;;;;6.20;49.13;102697.41;5035365;28;20029;-67
2022/04/15 06:53:24;;;;;;;10.25;4.82;;;;;;;6.12;49.20;102703.38;5052720;28;20037;-66
2022/04/15 06:55:51;;;;;;;8.48;3.38;;;;;;;6.25;49.55;102705.22;5017039;28;20090;-67
2022/04/15 06:58:17;;;;;;;9.15;3.97;;;;;;;5.90;50.09;102703.19;5034821;28;20234;-68
2022/04/15 07:00:43;;;;;;;12.60;5.50;;;;;;;5.73;51.45;102704.78;5038701;28;20048;-68
2022/04/15 07:03:10;;;;;;;10.10;5.07;;;;;;;5.46;51.60;102706.25;5040713;28;20033;-66
2022/04/15 07:05:36;;;;;;;15.07;5.55;;;;;;;5.88;50.53;102713.59;5059170;28;20104;-69
2022/04/15 07:08:02;;;;;;;15.68;5.68;;;;;;;5.94;49.54;102711.88;5038333;28;20040;-68
2022/04/15 07:10:27;;;;;;;16.02;6.50;;;;;;;5.78;50.45;102713.47;5039268;28;20115;-68
2022/04/15 07:12:53;;;;;;;15.50;6.85;;;;;;;6.04;49.47;102726.69;5036864;28;20040;-68
2022/04/15 07:15:20;;;;;;;13.15;6.22;;;;;;;5.96;49.38;102716.22;5036874;28;20041;-69
2022/04/15 07:17:46;;;;;;;12.68;5.55;;;;;;;5.97;49.01;102720.56;5036429;28;20037;-69
2022/04/15 07:20:11;;;;;;;12.25;6.60;;;;;;;5.87;49.49;102722.19;5037684;28;20328;-68
2022/04/15 07:22:37;;;;;;;12.77;6.13;;;;;;;5.96;49.67;102724.00;5038393;28;20688;-69
2022/04/15 07:25:03;;;;;;;13.73;7.25;;;;;;;6.20;49.02;102725.09;5034903;28;20037;-69
2022/04/15 07:27:28;;;;;;;11.50;5.38;;;;;;;6.24;49.28;102730.31;5034833;28;20106;-65
2022/04/15 07:29:54;;;;;;;12.18;6.63;;;;;;;5.69;51.05;102727.22;5031775;28;20043;-69
2022/04/15 07:32:21;;;;;;;13.07;6.15;;;;;;;5.65;50.46;102738.41;5035421;28;20039;-68
2022/04/15 07:34:47;;;;;;;15.73;5.85;;;;;;;5.96;49.21;102734.41;5033237;28;20033;-69
2022/04/15 07:37:13;;;;;;;11.65;5.25;;;;;;;6.24;49.04;102740.72;5035120;28;20048;-69
2022/04/15 07:39:39;;;;;;;14.40;5.95;;;;;;;6.50;48.00;102734.84;5035692;28;20033;-68
2022/04/15 07:42:05;;;;;;;12.25;5.35;;;;;;;6.41;48.38;102742.59;5031379;28;20029;-68
2022/04/15 07:44:30;;;;;;;11.13;5.55;;;;;;;6.38;48.84;102748.63;5033789;28;20701;-68
2022/04/15 07:46:56;;;;;;;14.32;5.40;;;;;;;6.53;48.52;102752.19;5007326;28;20041;-68
2022/04/15 07:49:21;;;;;;;8.85;4.65;;;;;;;6.03;49.71;102749.16;5036728;28;20064;-68
2022/04/15 07:51:48;;;;;;;13.98;5.63;;;;;;;6.01;50.16;102748.28;5034093;28;20060;-68
2022/04/15 07:54:14;;;;;;;11.10;5.65;;;;;;;5.65;50.78;102752.25;5034570;28;20056;-68
2022/04/15 07:56:40;;;;;;;11.88;6.05;;;;;;;5.80;50.23;102753.28;5036991;28;20040;-68
2022/04/15 07:59:07;;;;;;;8.25;4.30;;;;;;;6.06;49.75;102750.91;5033561;28;20028;-69
2022/04/15 08:01:33;;;;;;;13.35;5.35;;;;;;;6.40;48.89;102749.50;5036839;28;20298;-68
2022/04/15 08:03:59;;;;;;;10.35;4.60;;;;;;;6.13;49.72;102746.66;5047110;28;20037;-68
2022/04/15 08:06:30;;;;;;;6.28;4.05;;;;;;;6.25;48.96;102751.97;5036962;28;20286;-68
2022/04/15 08:08:56;;;;;;;9.15;4.97;;;;;;;6.33;49.22;102752.94;5035287;28;20438;-68
2022/04/15 08:11:23;;;;;;;12.27;4.53;;;;;;;6.48;48.34;102762.53;5037283;28;20036;-67
2022/04/15 08:13:50;;;;;;;12.63;4.70;;;;;;;6.28;48.96;102762.38;5030061;28;20036;-68
2022/04/15 08:16:16;;;;;;;11.30;5.13;;;;;;;6.60;48.24;102766.97;5032425;28;20021;-68
2022/04/15 08:18:42;;;;;;;6.97;4.38;;;;;;;6.62;48.23;102762.63;5035927;28;20075;-68
2022/04/15 08:21:07;;;;;;;9.80;5.03;;;;;;;6.65;47.29;102767.88;5036616;28;20040;-68
2022/04/15 08:23:33;;;;;;;9.93;4.30;;;;;;;6.45;48.15;102766.00;5034871;28;20044;-69
2022/04/15 08:25:59;;;;;;;12.05;5.35;;;;;;;6.82;47.49;102763.66;5033532;28;20032;-69
2022/04/15 08:28:24;;;;;;;10.10;4.78;;;;;;;6.61;48.18;102771.31;5036335;28;20440;-69
2022/04/15 08:30:50;;;;;;;6.53;4.30;;;;;;;6.81;47.61;102769.69;5033784;28;20033;-69
2022/04/15 08:33:16;;;;;;;8.32;3.75;;;;;;;6.63;47.65;102780.84;5035868;28;20033;-69
2022/04/15 08:35:41;;;;;;;7.25;4.50;;;;;;;6.76;47.50;102776.59;5034868;28;20495;-68
2022/04/15 08:38:07;;;;;;;9.23;3.92;;;;;;;6.58;48.09;102786.88;5033873;28;20033;-69
2022/04/15 08:40:35;;;;;;;7.60;4.38;;;;;;;6.91;47.53;102784.50;5033412;28;20080;-68
2022/04/15 08:43:03;;;;;;;6.63;3.65;;;;;;;6.52;48.06;102781.63;5032571;28;20044;-69
2022/04/15 08:45:30;;;;;;;14.55;4.00;;;;;;;6.43;48.65;102795.41;5039008;28;20048;-68
2022/04/15 08:48:00;;;;;;;12.43;5.25;;;;;;;6.44;48.58;102786.75;5032364;28;20052;-69
2022/04/15 08:50:30;;;;;;;8.80;3.47;;;;;;;6.48;48.27;102797.22;5036884;28;20520;-69
2022/04/15 08:52:58;;;;;;;9.02;5.70;;;;;;;6.66;48.25;102796.47;5014042;28;20099;-68
2022/04/15 08:55:25;;;;;;;11.05;4.93;;;;;;;6.77;47.03;102804.31;5035824;28;20035;-68
2022/04/15 08:57:51;;;;;;;13.60;3.92;;;;;;;6.69;47.48;102800.81;4992555;28;20058;-69
2022/04/15 09:00:19;;;;;;;8.27;3.55;;;;;;;6.98;47.14;102805.34;5045695;28;20036;-68
2022/04/15 09:02:45;;;;;;;8.20;3.70;;;;;;;6.94;46.97;102811.38;5036529;28;20055;-68
2022/04/15 09:05:12;;;;;;;11.27;3.47;;;;;;;6.75;47.63;102812.97;5038463;28;20033;-68
2022/04/15 09:07:38;;;;;;;6.47;3.75;;;;;;;6.63;48.51;102812.03;5035827;28;20140;-67
2022/04/15 09:10:05;;;;;;;7.55;3.53;;;;;;;6.54;47.85;102821.50;5037578;28;20478;-68
2022/04/15 09:12:35;;;;;;;10.98;3.58;;;;;;;6.43;48.30;102817.06;5037812;28;20049;-67
2022/04/15 09:15:06;;;;;;;7.40;4.32;;;;;;;6.41;48.63;102821.38;5035736;28;20684;-68
2022/04/15 09:17:35;;;;;;;14.95;4.50;;;;;;;6.86;47.34;102834.72;5038647;28;20253;-68
2022/04/15 09:20:03;;;;;;;9.48;4.85;;;;;;;6.96;47.71;102827.88;5036190;28;20103;-67
2022/04/15 09:22:29;;;;;;;11.05;4.38;;;;;;;7.17;47.44;102829.72;5036447;28;20033;-68
2022/04/15 09:24:54;;;;;;;10.80;4.55;;;;;;;7.24;46.49;102832.34;5032109;28;20094;-68
2022/04/15 09:27:20;;;;;;;7.90;4.47;;;;;;;7.05;47.13;102838.31;5038271;28;20041;-68
2022/04/15 09:29:46;;;;;;;9.90;4.53;;;;;;;7.03;46.87;102837.44;5035551;28;20138;-65
2022/04/15 09:32:14;;;;;;;14.15;5.03;;;;;;;7.44;46.30;102836.78;5033970;28;20562;-65
2022/04/15 09:34:56;;;;;;;12.65;4.53;;;;;;;7.65;45.01;102834.31;5025129;28;20178;-65
2022/04/15 09:37:39;;;;;;;10.50;4.65;;;;;;;7.44;45.88;102828.97;5034857;28;20674;-65
2022/04/15 09:40:15;;;;;;;7.63;4.57;;;;;;;7.70;44.75;102827.38;5033609;28;20354;-65
2022/04/15 09:42:59;;;;;;;10.05;5.00;;;;;;;7.40;45.76;102835.03;5032700;28;20535;-65
2022/04/15 09:45:28;;;;;;;8.82;4.25;;;;;;;7.74;44.89;102829.13;5036351;28;20032;-65
2022/04/15 09:48:01;;;;;;;7.03;4.35;;;;;;;7.63;45.32;102832.56;5031619;28;20051;-65
2022/04/15 09:50:29;;;;;;;9.60;5.38;;;;;;;8.01;44.41;102835.28;5037062;28;20033;-65
2022/04/15 09:53:08;;;;;;;7.43;4.75;;;;;;;7.97;44.50;102835.25;5033184;28;20056;-65
2022/04/15 09:55:35;;;;;;;5.82;3.53;;;;;;;7.86;44.53;102830.88;5037159;28;20112;-66
2022/04/15 09:58:07;;;;;;;6.68;3.72;;;;;;;7.60;44.58;102846.44;5031901;28;20379;-65
2022/04/15 10:00:34;;;;;;;6.70;3.97;;;;;;;7.64;45.37;102842.09;5034125;28;20110;-65
2022/04/15 10:03:03;;;;;;;9.05;4.10;;;;;;;7.37;45.87;102838.47;5033075;28;20044;-64
2022/04/15 10:05:29;;;;;;;7.07;4.10;;;;;;;7.49;45.54;102840.28;5033866;28;20398;-65
2022/04/15 10:07:55;;;;;;;5.38;3.25;;;;;;;7.62;45.01;102849.88;5032227;28;20265;-65
2022/04/15 10:10:21;;;;;;;8.23;4.80;;;;;;;7.59;45.29;102847.28;5034349;28;20799;-64
2022/04/15 10:12:49;;;;;;;11.48;4.40;;;;;;;7.63;45.21;102841.25;5031539;28;20528;-65
2022/04/15 10:15:17;;;;;;;10.00;4.72;;;;;;;7.76;44.84;102834.34;5016892;28;20052;-65
2022/04/15 10:17:42;;;;;;;7.95;4.38;;;;;;;7.60;45.39;102846.44;5047560;28;20051;-65
2022/04/15 10:20:08;;;;;;;8.98;4.03;;;;;;;7.49;45.38;102848.09;5031754;28;20029;-65
2022/04/15 10:22:39;;;;;;;11.45;5.20;;;;;;;7.73;45.46;102858.63;5030222;28;20114;-64
2022/04/15 10:25:06;;;;;;;7.60;4.05;;;;;;;7.45;46.16;102848.94;5029653;28;20749;-66
2022/04/15 10:27:32;;;;;;;8.00;4.53;;;;;;;7.60;45.46;102846.44;5030186;28;20041;-65
2022/04/15 10:30:14;;;;;;;7.72;3.72;;;;;;;7.80;45.20;102848.22;5028892;28;20028;-64
2022/04/15 10:32:55;;;;;;;6.90;4.10;;;;;;;7.88;45.23;102846.53;5032902;28;20942;-65
2022/04/15 10:35:29;;;;;;;6.80;3.72;;;;;;;7.47;46.08;102857.63;5047676;28;20136;-66
2022/04/15 10:37:56;;;;;;;10.65;4.05;;;;;;;7.59;45.85;102856.84;5029105;28;20083;-66
2022/04/15 10:40:30;;;;;;;8.15;3.85;;;;;;;8.09;44.81;102857.00;5032734;28;20037;-65
2022/04/15 10:43:03;;;;;;;6.65;4.03;;;;;;;7.73;45.47;102856.03;5029804;28;20167;-65
2022/04/15 10:45:34;;;;;;;7.65;4.63;;;;;;;7.81;44.96;102850.84;5027210;28;20029;-65
2022/04/15 10:48:01;;;;;;;7.80;3.80;;;;;;;7.82;45.13;102868.19;5025111;28;20122;-65
2022/04/15 10:50:29;;;;;;;9.20;4.28;;;;;;;7.73;45.71;102862.94;5030854;28;20111;-65
2022/04/15 10:53:18;;;;;;;5.38;3.70;;;;;;;7.66;45.85;102859.44;5029799;28;20324;-64
2022/04/15 10:55:52;;;;;;;7.72;4.15;;;;;;;7.69;45.96;102867.28;5032246;28;20113;-65
2022/04/15 10:58:19;;;;;;;4.97;3.92;;;;;;;7.79;45.87;102859.50;5035365;28;20143;-65
2022/04/15 11:01:14;;;;;;;6.30;3.40;;;;;;;7.70;45.64;102861.22;5033110;28;20041;-64
2022/04/15 11:03:40;;;;;;;9.13;4.25;;;;;;;7.51;46.54;102859.34;5033135;28;20068;-64
2022/04/15 11:06:09;;;;;;;6.25;3.60;;;;;;;8.02;45.26;102862.19;5032768;28;20249;-64
2022/04/15 11:08:48;;;;;;;9.05;3.22;;;;;;;7.95;45.05;102858.69;5031716;28;20040;-65
2022/04/15 11:11:14;;;;;;;7.55;4.07;;;;;;;7.87;45.85;102865.59;5030528;28;20124;-64
2022/04/15 11:13:40;;;;;;;7.07;4.07;;;;;;;7.86;45.18;102869.06;5048222;28;20040;-65
2022/04/15 11:16:18;;;;;;;11.10;4.53;;;;;;;7.80;45.55;102872.56;5029377;28;20029;-65
2022/04/15 11:18:55;;;;;;;8.63;3.78;;;;;;;7.76;45.29;102859.47;5032440;28;20041;-65
2022/04/15 11:21:27;;;;;;;5.68;3.15;;;;;;;7.38;46.71;102865.34;5033745;28;20041;-65
2022/04/15 11:23:57;;;;;;;8.02;4.40;;;;;;;7.97;45.22;102862.16;5046313;28;20519;-65
2022/04/15 11:26:24;;;;;;;7.43;3.53;;;;;;;8.26;44.99;102866.56;5030642;28;20033;-65
2022/04/15 11:28:52;;;;;;;7.22;3.67;;;;;;;8.05;44.48;102860.47;5029250;28;20462;-64